HOME RANKINGS ROUTES SEARCH PLANNING FAQ LOGIN
stevekh3
MTB
2022/12/07 16:31:21

Cervignano - Boscat - Belvedere

MTB
stevekh3
31,14 km
+159 mt (3 - 11)
01:22:26
24,34 km\h
117 bpm
117 rpm
7 °C
Olympia F1X 2019
Creator Training Camp
0
 
Downloads

Graph

Km Table

Km Time Elapsed time Vertical meters Average speed Average heart ratio Average cadence Average temperature
1 00:03:32 00:03:32 0 mt 20.45 Km/h 104 bpm 35 rpm 15 °C
2 00:06:09 00:02:37 0 mt 21.57 Km/h 103 bpm 52 rpm 14 °C
3 00:08:39 00:02:30 -2 mt 23.98 Km/h 109 bpm 62 rpm 12 °C
4 00:11:35 00:02:56 0 mt 21.42 Km/h 105 bpm 50 rpm 11 °C
5 00:13:56 00:02:21 0 mt 25.60 Km/h 121 bpm 61 rpm 10 °C
6 00:16:25 00:02:29 0 mt 24.16 Km/h 110 bpm 63 rpm 9 °C
7 00:19:09 00:02:44 0 mt 21.97 Km/h 110 bpm 48 rpm 9 °C
8 00:21:30 00:02:21 -2 mt 25.54 Km/h 107 bpm 55 rpm 8 °C
9 00:24:02 00:02:32 -1 mt 23.67 Km/h 111 bpm 56 rpm 8 °C
10 00:26:34 00:02:32 1 mt 23.63 Km/h 113 bpm 60 rpm 7 °C
11 00:29:07 00:02:33 0 mt 23.60 Km/h 112 bpm 56 rpm 7 °C
12 00:31:27 00:02:20 0 mt 25.73 Km/h 107 bpm 55 rpm 7 °C
13 00:33:35 00:02:08 -1 mt 28.02 Km/h 120 bpm 61 rpm 7 °C
14 00:37:59 00:04:24 0 mt 23.75 Km/h 112 bpm 52 rpm 7 °C
15 00:40:16 00:02:17 0 mt 26.22 Km/h 123 bpm 60 rpm 7 °C
16 00:42:36 00:02:20 0 mt 25.75 Km/h 117 bpm 55 rpm 6 °C
17 00:44:47 00:02:11 0 mt 27.53 Km/h 117 bpm 59 rpm 6 °C
18 00:48:30 00:03:43 2 mt 23.93 Km/h 123 bpm 57 rpm 6 °C
19 00:53:23 00:04:53 -2 mt 23.03 Km/h 114 bpm 53 rpm 6 °C
20 00:55:44 00:02:21 2 mt 25.57 Km/h 120 bpm 55 rpm 6 °C
21 00:58:00 00:02:16 0 mt 26.50 Km/h 125 bpm 57 rpm 6 °C
22 01:00:15 00:02:15 0 mt 26.59 Km/h 122 bpm 57 rpm 6 °C
23 01:02:30 00:02:15 -3 mt 26.69 Km/h 122 bpm 57 rpm 5 °C
24 01:04:58 00:02:28 0 mt 24.41 Km/h 126 bpm 51 rpm 5 °C
25 01:07:14 00:02:16 1 mt 26.39 Km/h 128 bpm 56 rpm 5 °C
26 01:09:34 00:02:20 -1 mt 25.70 Km/h 128 bpm 59 rpm 5 °C
27 01:11:52 00:02:18 -1 mt 26.20 Km/h 124 bpm 57 rpm 5 °C
28 01:14:18 00:02:26 0 mt 24.57 Km/h 121 bpm 54 rpm 4 °C
29 01:16:51 00:02:33 1 mt 23.63 Km/h 128 bpm 54 rpm 4 °C
30 01:19:20 00:02:29 1 mt 25.85 Km/h 130 bpm 55 rpm 5 °C
30.52 01:20:35 00:01:15 0 mt 24.84 Km/h 122 bpm 51 rpm 5 °C

Comments